Saint Louis, Canada
Current Conditions -  °F | °C
As of 7:00 PM on Saturday 20 Dec 2014 (Local Time) from CYPA Reporting Station
Light Snow Light Snow  
Wind Chill: 19°   Ceiling: 500
Heat Index: 19°   Visibility: 8mi
Dew Point: 19°   Wind: 3mph
Humidity: 100%   Direction: 90°E
Pressure: 29.68"   Gusts: NA
Location:  52.92°N, 105.8°W
Report Text: CYPA 210100Z 09003KT 8SM -SN OVC005 M07/M07 A2968 RMK ST8 SLP082
Loading
Personal Weather Stations






























Interactive Weather Map New forecast layout! Learn more

10-Day Weather Forecast

Advertisements
Track Severe Weather on mobile